METAR Data
IDs: Format: Raw Decoded Include TAF

Data at: 0229 UTC 24 Sep 2018

KMCD 240215Z AUTO 10012G23KT 070V130 4SM BR OVC006 09/08 A3031 RMK AO2 T00910083
KMCD 240155Z AUTO 08010G23KT 4SM BR OVC006 09/08 A3031 RMK AO2 T00900081
KMCD 240135Z AUTO 08011G21KT 4SM BR OVC006 09/08 A3030 RMK AO2 T00870078
KMCD 240115Z AUTO 08012G20KT 4SM BR OVC006 09/08 A3030 RMK AO2 T00870077
KMCD 240055Z AUTO 09013G21KT 4SM BR OVC006 09/08 A3030 RMK AO2 T00880076
KMCD 240035Z AUTO 08011G18KT 060V120 7SM OVC008 09/08 A3030 RMK AO2 T00900077
KMCD 240015Z AUTO 09014G23KT 7SM OVC008 09/08 A3029 RMK AO2 T00910075
KMCD 232355Z AUTO 09010G19KT 050V110 10SM OVC008 09/07 A3028 RMK AO2 T00910073 10126 20090
KMCD 232335Z AUTO 09012G23KT 10SM OVC008 09/07 A3027 RMK AO2 T00910071
KMCD 232315Z AUTO 08010G19KT 050V120 7SM OVC008 09/07 A3028 RMK AO2 T00910071
KMCD 232255Z AUTO 09014G22KT 5SM BR OVC008 09/07 A3028 RMK AO2 T00910070
KMCD 232235Z AUTO 08012G19KT 7SM OVC010 09/06 A3028 RMK AO2 T00920062
KMCD 232215Z AUTO 08009G22KT 10SM OVC010 10/06 A3028 RMK AO2 T00960061
KMCD 232155Z AUTO 07012G20KT 10SM OVC012 10/06 A3027 RMK AO2 T01000061
KMCD 232135Z AUTO 07013G21KT 10SM OVC012 10/06 A3027 RMK AO2 T01020060
KMCD 232115Z AUTO 08011G18KT 040V110 10SM OVC012 11/06 A3027 RMK AO2 T01050061
KMCD 232055Z AUTO 08009G18KT 10SM OVC012 11/06 A3026 RMK AO2 T01100062
KMCD 232035Z AUTO 09007G17KT 10SM OVC012 11/07 A3025 RMK AO2 T01130066
KMCD 232015Z AUTO 09012G19KT 060V120 10SM OVC012 11/07 A3025 RMK AO2 T01120068
KMCD 231955Z AUTO 08012G19KT 10SM OVC010 11/07 A3025 RMK AO2 T01110070
KMCD 231935Z AUTO 07011G18KT 040V110 10SM OVC010 12/07 A3025 RMK AO2 T01150072
KMCD 231915Z AUTO 07011G18KT 10SM OVC010 12/07 A3025 RMK AO2 T01180074
KMCD 231855Z AUTO 09011G17KT 10SM OVC010 12/08 A3024 RMK AO2 T01180077
KMCD 231835Z AUTO 08010G18KT 10SM OVC010 12/08 A3024 RMK AO2 T01230078
KMCD 231815Z AUTO 09011G19KT 10SM OVC008 12/08 A3023 RMK AO2 T01220083
KMCD 231755Z AUTO 09009G18KT 10SM OVC008 12/09 A3024 RMK AO2 T01230085 10160 20123
KMCD 231735Z AUTO 08009G17KT 050V110 10SM BKN006 OVC015 13/09 A3024 RMK AO2 T01310090
KMCD 231715Z AUTO 09011G18KT 050V120 10SM BKN008 OVC014 13/10 A3023 RMK AO2 T01320097
KMCD 231655Z AUTO 09013G22KT 10SM BKN008 BKN017 OVC022 14/10 A3023 RMK AO2 T01360100
KMCD 231635Z AUTO 08009KT 10SM BKN015 OVC022 16/10 A3023 RMK AO2 T01550098
KMCD 231615Z AUTO 00000KT 10SM OVC013 16/10 A3022 RMK AO2 T01590100
KMCD 231555Z AUTO 00000KT 10SM OVC013 15/10 A3022 RMK AO2 T01470100
KMCD 231535Z AUTO 00000KT 10SM BKN013 15/10 A3022 RMK AO2 T01520104
KMCD 231515Z AUTO 00000KT 10SM BKN013 15/10 A3023 RMK AO2 T01450104
KMCD 231455Z AUTO 00000KT 10SM SCT011 SCT050 SCT120 14/11 A3022 RMK AO2 T01440107
KMCD 231435Z AUTO 00000KT 10SM SCT033 SCT050 14/11 A3022 RMK AO2 T01410108
KMCD 231415Z AUTO 00000KT 10SM SCT012 BKN028 OVC033 14/11 A3022 RMK AO2 T01400110
KMCD 231355Z AUTO 00000KT 10SM BKN020 BKN026 14/11 A3021 RMK AO2 T01390114
KMCD 231335Z AUTO 00000KT 10SM BKN020 BKN027 OVC120 14/11 A3021 RMK AO2 T01370113
KMCD 231315Z AUTO 00000KT 10SM BKN023 BKN030 OVC036 13/11 A3020 RMK AO2 T01320112
KMCD 231255Z AUTO 00000KT 10SM SCT023 SCT030 OVC037 13/11 A3020 RMK AO2 T01280108
KMCD 231235Z AUTO 20003KT 10SM SCT026 BKN037 OVC045 13/11 A3019 RMK AO2 T01300109
KMCD 231215Z AUTO 22006KT 10SM SCT025 SCT030 BKN044 13/11 A3019 RMK AO2 T01270107
KMCD 231155Z AUTO 19005KT 10SM SCT025 SCT030 BKN050 12/11 A3019 RMK AO2 T01230106 10130 20123
KMCD 231135Z AUTO 19003KT 10SM SCT030 SCT034 BKN095 12/11 A3018 RMK AO2 T01240105
KMCD 231115Z AUTO 20004KT 10SM SCT023 BKN030 OVC049 13/10 A3018 RMK AO2 T01250102
KMCD 231055Z AUTO 20005KT 10SM BKN023 OVC045 13/10 A3018 RMK AO2 T01280098
KMCD 231035Z AUTO 22006KT 10SM BKN021 OVC031 13/10 A3018 RMK AO2 T01280095
KMCD 231015Z AUTO 21003KT 10SM SCT025 OVC033 13/09 A3017 RMK AO2 T01300091
KMCD 230955Z AUTO 21005KT 10SM SCT025 BKN034 OVC047 13/09 A3017 RMK AO2 T01260086
KMCD 230935Z AUTO 21006KT 10SM SCT025 BKN048 OVC100 13/09 A3017 RMK AO2 T01260087
KMCD 230915Z AUTO 21007KT 10SM OVC110 13/09 A3017 RMK AO2 T01260087
KMCD 230855Z AUTO 21007KT 10SM OVC110 13/09 A3017 RMK AO2 T01250085
KMCD 230835Z AUTO 20007KT 10SM SCT028 OVC100 12/08 A3017 RMK AO2 T01240081
KMCD 230815Z AUTO 20006KT 10SM OVC100 12/08 A3016 RMK AO2 T01230080
KMCD 230755Z AUTO 20006KT 10SM OVC090 12/08 A3016 RMK AO2 T01230077
KMCD 230735Z AUTO 21007KT 10SM OVC100 13/08 A3017 RMK AO2 T01250075
KMCD 230715Z AUTO 21006KT 10SM OVC100 13/08 A3017 RMK AO2 T01250075
KMCD 230655Z AUTO 21006KT 10SM OVC090 13/07 A3017 RMK AO2 T01260073
KMCD 230635Z AUTO 21006KT 10SM OVC090 13/07 A3017 RMK AO2 T01250072
KMCD 230615Z AUTO 21008KT 10SM OVC100 13/07 A3018 RMK AO2 T01250071
KMCD 230555Z AUTO 21007KT 10SM OVC090 13/07 A3018 RMK AO2 T01260072 10132 20123
KMCD 230535Z AUTO 20007KT 10SM OVC090 13/07 A3018 RMK AO2 T01280070
KMCD 230515Z AUTO 20007KT 10SM OVC090 13/07 A3018 RMK AO2 T01280071
KMCD 230455Z AUTO 20006KT 10SM OVC090 13/07 A3018 RMK AO2 T01300068
KMCD 230435Z AUTO 21006KT 10SM OVC100 13/07 A3018 RMK AO2 T01300070
KMCD 230415Z AUTO 20006KT 10SM OVC100 13/07 A3018 RMK AO2 T01280070
KMCD 230355Z AUTO 20005KT 10SM OVC100 13/07 A3018 RMK AO2 T01290068 401480045
KMCD 230335Z AUTO 21005KT 10SM BKN100 13/07 A3019 RMK AO2 T01270068
KMCD 230315Z AUTO 22006KT 10SM BKN110 13/06 A3019 RMK AO2 T01270064
KMCD 230255Z AUTO 23005KT 10SM BKN120 13/06 A3019 RMK AO2 T01250062
KMCD 230235Z AUTO 23005KT 10SM CLR 12/06 A3020 RMK AO2 T01230058
KMCD 230215Z AUTO 22005KT 10SM SCT120 12/05 A3019 RMK AO2 T01230052
KMCD 230155Z AUTO 22004KT 10SM BKN110 13/05 A3018 RMK AO2 T01260048
KMCD 230135Z AUTO 21006KT 10SM OVC110 13/05 A3018 RMK AO2 T01260052
KMCD 230115Z AUTO 22006KT 10SM OVC110 13/05 A3019 RMK AO2 T01300050
KMCD 230055Z AUTO 21005KT 10SM OVC110 13/05 A3019 RMK AO2 T01300047
KMCD 230035Z AUTO 23005KT 10SM SCT033 OVC110 13/05 A3019 RMK AO2 T01320045
KMCD 230015Z AUTO 22007KT 10SM SCT033 OVC120 13/04 A3020 RMK AO2 T01320043
KMCD 222355Z AUTO 23007KT 10SM SCT033 SCT120 13/04 A3020 RMK AO2 T01300039 10148 20128
KMCD 222335Z AUTO 24011G17KT 10SM SCT033 13/04 A3021 RMK AO2 T01300040
KMCD 222315Z AUTO 24009G14KT 200V280 10SM CLR 13/04 A3021 RMK AO2 T01330037
KMCD 222255Z AUTO 24007G14KT 10SM CLR 14/04 A3021 RMK AO2 T01360037
KMCD 222235Z AUTO 25009KT 10SM CLR 14/03 A3021 RMK AO2 T01400029
KMCD 222215Z AUTO 24007G14KT 10SM CLR 14/03 A3021 RMK AO2 T01410031
KMCD 222155Z AUTO 25009G16KT 210V270 10SM SCT035 15/04 A3021 RMK AO2 T01450037
KMCD 222135Z AUTO 23007KT 10SM SCT037 14/03 A3021 RMK AO2 T01420032
KMCD 222115Z AUTO 25008G15KT 10SM SCT037 15/03 A3022 RMK AO2 T01450033
KMCD 222055Z AUTO 25011G15KT 10SM SCT035 15/03 A3023 RMK AO2 T01450030
KMCD 222035Z AUTO 25006G14KT 10SM SCT035 15/03 A3023 RMK AO2 T01450032
KMCD 222015Z AUTO 25008G16KT 10SM SCT041 15/03 A3024 RMK AO2 T01450027
KMCD 221955Z AUTO 25008G17KT 10SM SCT041 15/03 A3024 RMK AO2 T01470030
KMCD 221935Z AUTO 24010G14KT 10SM BKN039 15/02 A3025 RMK AO2 T01450021
KMCD 221915Z AUTO 24008KT 180V270 10SM BKN039 14/03 A3025 RMK AO2 T01440025
KMCD 221855Z AUTO 24006KT 10SM SCT039 14/02 A3026 RMK AO2 T01430023
KMCD 221835Z AUTO 24009G14KT 180V250 10SM BKN039 14/02 A3027 RMK AO2 T01430023
KMCD 221815Z AUTO 23005G15KT 10SM BKN039 14/02 A3028 RMK AO2 T01400019
KMCD 221755Z AUTO 24010G15KT 190V270 10SM BKN039 14/02 A3029 RMK AO2 T01400018 10141 20046
KMCD 221735Z AUTO 24007G14KT 10SM BKN039 14/02 A3029 RMK AO2 T01400016
KMCD 221715Z AUTO 24006G15KT 10SM BKN039 14/02 A3030 RMK AO2 T01400022
KMCD 221655Z AUTO 23007KT 210V280 10SM BKN043 14/02 A3031 RMK AO2 T01350020
KMCD 221635Z AUTO 25007KT 10SM BKN041 13/01 A3032 RMK AO2 T01340007
KMCD 221615Z AUTO 23005KT 10SM OVC037 13/02 A3033 RMK AO2 T01290018
KMCD 221555Z AUTO 22007KT 10SM BKN035 12/02 A3033 RMK AO2 T01220018
KMCD 221535Z AUTO 19005KT 10SM CLR 12/02 A3033 RMK AO2 T01220024
KMCD 221515Z AUTO 20005KT 10SM CLR 11/02 A3033 RMK AO2 T01120023
KMCD 221455Z AUTO 19003KT 10SM CLR 11/03 A3033 RMK AO2 T01110028
KMCD 221435Z AUTO 20006KT 10SM CLR 11/03 A3033 RMK AO2 T01070028